Time;durP1;ratioP1;P1;durP2;ratioP2;P2;SDS_P1;SDS_P2;PMS_P1;PMS_P2;Temp;Humidity;BMP_temperature;BMP_pressure;BME280_temperature;BME280_humidity;BME280_pressure;Samples;Min_cycle;Max_cycle;Signal;HPM_P1;HPM_P2
2022/03/21 00:01:33;;;;;;;87.22;51.15;;;;;;;-0.15;67.41;104063.23;1768678;80;20997;-77
2022/03/21 00:04:00;;;;;;;85.47;49.33;;;;;;;-0.15;67.45;104060.98;1766403;80;22587;-78
2022/03/21 00:06:31;;;;;;;81.65;48.63;;;;;;;-0.17;67.49;104060.80;1766197;80;21545;-77
2022/03/21 00:09:03;;;;;;;;;;;;;;;-0.17;67.56;104059.88;1730718;80;21066;-77
2022/03/21 00:11:36;;;;;;;78.90;47.58;;;;;;;-0.20;67.67;104055.27;1743996;80;21310;-76
2022/03/21 00:14:11;;;;;;;84.77;48.68;;;;;;;-0.20;67.73;104057.48;1757105;80;21135;-76
2022/03/21 00:16:41;;;;;;;86.75;49.85;;;;;;;-0.20;67.73;104056.19;1750360;81;27801;-76
2022/03/21 00:19:12;;;;;;;89.05;50.52;;;;;;;-0.21;67.76;104055.99;1751581;80;22034;-76
2022/03/21 00:21:40;;;;;;;85.55;50.20;;;;;;;-0.24;67.78;104052.67;1752987;80;21076;-76
2022/03/21 00:24:07;;;;;;;86.72;51.63;;;;;;;-0.25;67.83;104052.10;1750388;81;21075;-78
2022/03/21 00:26:34;;;;;;;88.62;52.45;;;;;;;-0.25;67.87;104057.28;1756643;81;21605;-76
2022/03/21 00:29:01;;;;;;;91.75;51.18;;;;;;;-0.26;67.90;104055.45;1729218;81;22555;-76
2022/03/21 00:31:35;;;;;;;92.53;51.63;;;;;;;-0.28;67.94;104052.09;1754261;80;21068;-76
2022/03/21 00:34:01;;;;;;;96.55;53.60;;;;;;;-0.29;68.00;104054.14;1744007;80;21727;-76
2022/03/21 00:36:28;;;;;;;92.02;52.98;;;;;;;-0.30;68.05;104048.05;1745662;80;21112;-77
2022/03/21 00:38:54;;;;;;;92.17;53.00;;;;;;;-0.30;68.02;104050.98;1748196;80;21069;-77
2022/03/21 00:41:22;;;;;;;96.37;53.05;;;;;;;-0.33;68.00;104042.48;1750169;81;21787;-77
2022/03/21 00:43:52;;;;;;;95.87;53.30;;;;;;;-0.34;68.06;104047.09;1749849;80;21057;-76
2022/03/21 00:46:17;;;;;;;92.25;53.28;;;;;;;-0.33;68.08;104050.63;1745031;80;21049;-77
2022/03/21 00:48:44;;;;;;;96.25;54.23;;;;;;;-0.35;68.11;104053.03;1749378;81;21148;-77
2022/03/21 00:51:11;;;;;;;90.65;52.70;;;;;;;-0.36;68.24;104047.66;1746305;81;21092;-77
2022/03/21 00:53:38;;;;;;;90.95;52.35;;;;;;;-0.36;68.31;104048.95;1745240;81;21828;-77
2022/03/21 00:56:05;;;;;;;89.37;53.48;;;;;;;-0.37;68.33;104052.30;1744858;80;21061;-77
2022/03/21 00:58:31;;;;;;;91.12;53.73;;;;;;;-0.34;68.33;104052.66;1750716;80;21096;-77
2022/03/21 01:00:58;;;;;;;98.95;53.25;;;;;;;-0.35;68.31;104049.14;1744193;80;21187;-77
2022/03/21 01:03:24;;;;;;;97.47;53.95;;;;;;;-0.36;68.32;104047.66;1750026;81;21113;-77
2022/03/21 01:05:51;;;;;;;86.35;52.23;;;;;;;-0.38;68.30;104049.14;1743973;80;21748;-77
2022/03/21 01:08:18;;;;;;;93.70;54.50;;;;;;;-0.43;68.34;104044.71;1748241;80;21030;-77
2022/03/21 01:10:44;;;;;;;95.25;54.25;;;;;;;-0.46;68.44;104043.03;1740127;81;21626;-77
2022/03/21 01:13:11;;;;;;;94.37;53.28;;;;;;;-0.48;68.52;104041.92;1749713;80;21049;-76
2022/03/21 01:15:38;;;;;;;93.42;53.33;;;;;;;-0.49;68.56;104041.34;1747922;80;21065;-77
2022/03/21 01:18:05;;;;;;;88.22;53.23;;;;;;;-0.50;68.61;104036.92;1749317;80;21834;-77
2022/03/21 01:20:32;;;;;;;86.92;51.98;;;;;;;-0.49;68.66;104038.76;1746602;81;21050;-77
2022/03/21 01:22:58;;;;;;;102.05;53.63;;;;;;;-0.49;68.70;104040.05;1754109;80;21029;-77
2022/03/21 01:25:25;;;;;;;94.87;54.20;;;;;;;-0.51;68.70;104035.98;1748180;80;21049;-77
2022/03/21 01:27:52;;;;;;;93.27;54.20;;;;;;;-0.50;68.74;104042.10;1746870;80;22256;-76
2022/03/21 01:30:19;;;;;;;94.60;54.20;;;;;;;-0.51;68.75;104042.83;1749937;80;22611;-77
2022/03/21 01:32:46;;;;;;;96.32;56.28;;;;;;;-0.52;68.80;104040.61;1750322;81;21670;-77
2022/03/21 01:35:15;;;;;;;105.10;56.65;;;;;;;-0.54;68.82;104042.47;1747095;80;21053;-77
2022/03/21 01:37:41;;;;;;;106.07;55.73;;;;;;;-0.54;68.86;104045.06;1747128;80;21520;-76
2022/03/21 01:40:10;;;;;;;101.80;55.88;;;;;;;-0.53;68.86;104043.01;1730198;82;21624;-77
2022/03/21 01:42:37;;;;;;;100.42;57.73;;;;;;;-0.54;68.85;104046.35;1747528;82;21759;-77
2022/03/21 01:45:05;;;;;;;96.10;54.20;;;;;;;-0.57;68.83;104048.17;1751851;80;21740;-77
2022/03/21 01:47:33;;;;;;;100.95;54.73;;;;;;;-0.61;68.89;104040.78;1730336;82;21683;-77
2022/03/21 01:49:59;;;;;;;94.87;54.75;;;;;;;-0.61;68.91;104038.19;1746587;82;21218;-77
2022/03/21 01:52:26;;;;;;;99.30;56.83;;;;;;;-0.63;68.94;104041.88;1747520;81;21077;-76
2022/03/21 01:57:38;;;;;;;98.47;56.28;;;;;;;-0.64;68.99;104037.45;1741225;81;21346;-76
2022/03/21 02:00:07;;;;;;;92.70;54.67;;;;;;;-0.64;69.00;104042.63;1741787;80;21126;-76
2022/03/21 02:02:33;;;;;;;100.22;55.98;;;;;;;-0.65;69.04;104031.71;1727454;82;21094;-76
2022/03/21 02:05:00;;;;;;;100.05;55.50;;;;;;;-0.65;69.05;104035.59;1710712;82;21603;-77
2022/03/21 02:07:26;;;;;;;105.32;56.25;;;;;;;-0.67;69.09;104030.59;1745818;82;21742;-77
2022/03/21 02:09:54;;;;;;;100.87;55.60;;;;;;;-0.68;69.10;104036.87;1743293;80;21714;-76
2022/03/21 02:12:21;;;;;;;92.30;53.78;;;;;;;-0.70;69.12;104031.50;1726800;82;21099;-77
2022/03/21 02:14:48;;;;;;;104.47;56.35;;;;;;;-0.71;69.13;104029.67;1742551;80;21117;-77
2022/03/21 02:17:23;;;;;;;104.63;58.83;;;;;;;-0.70;69.18;104033.17;1749273;80;21061;-77
2022/03/21 02:19:49;;;;;;;98.10;57.13;;;;;;;-0.71;69.17;104032.60;1742204;82;21842;-76
2022/03/21 02:22:36;;;;;;;98.90;56.48;;;;;;;-0.74;69.19;104029.28;1743581;80;21003;-76
2022/03/21 02:25:34;;;;;;;101.82;56.95;;;;;;;-0.76;69.24;104030.76;1741967;80;21073;-76
2022/03/21 02:28:03;;;;;;;100.27;55.33;;;;;;;-0.76;69.26;104034.64;1740237;80;20999;-76
2022/03/21 02:30:31;;;;;;;100.12;56.25;;;;;;;-0.77;69.29;104037.94;1730314;82;21094;-76
2022/03/21 02:32:58;;;;;;;101.10;55.85;;;;;;;-0.79;69.33;104039.08;1747360;81;22714;-76
2022/03/21 02:35:25;;;;;;;102.20;56.85;;;;;;;-0.80;69.38;104037.20;1718556;80;21113;-76
2022/03/21 02:37:52;;;;;;;100.53;56.05;;;;;;;-0.80;69.44;104036.30;1728348;81;21660;-76
2022/03/21 02:40:19;;;;;;;103.22;56.63;;;;;;;-0.82;69.48;104036.09;1769043;80;21059;-77
2022/03/21 02:42:45;;;;;;;100.00;56.88;;;;;;;-0.82;69.48;104036.48;1767298;80;21067;-78
2022/03/21 02:45:12;;;;;;;100.75;57.78;;;;;;;-0.83;69.53;104029.44;1770828;80;22567;-78
2022/03/21 02:47:39;;;;;;;107.37;58.08;;;;;;;-0.84;69.58;104025.02;1770876;80;21233;-79
2022/03/21 02:50:07;;;;;;;108.40;58.85;;;;;;;-0.85;69.59;104027.03;1768568;80;21573;-78
2022/03/21 02:52:34;;;;;;;111.15;60.65;;;;;;;-0.87;69.63;104027.21;1765525;80;21740;-78
2022/03/21 02:55:00;;;;;;;110.32;58.50;;;;;;;-0.88;69.61;104031.81;1769669;80;21087;-77
2022/03/21 02:57:31;;;;;;;106.47;57.88;;;;;;;-0.89;69.64;104038.66;1766985;80;21791;-77
2022/03/21 02:59:55;;;;;;;106.25;57.83;;;;;;;-0.92;69.68;104031.83;1744082;80;21055;-77
2022/03/21 03:02:22;;;;;;;101.75;57.58;;;;;;;-0.91;69.75;104032.75;1754942;80;21622;-78
2022/03/21 03:04:49;;;;;;;110.30;59.98;;;;;;;-0.93;69.77;104026.09;1757099;80;21037;-78
2022/03/21 03:07:15;;;;;;;101.25;58.63;;;;;;;-0.92;69.78;104031.83;1753270;81;21025;-78
2022/03/21 03:09:42;;;;;;;105.55;59.75;;;;;;;-0.91;69.80;104030.16;1756247;80;22509;-78
2022/03/21 03:12:09;;;;;;;101.40;58.40;;;;;;;-0.93;69.80;104029.05;1746727;80;21171;-77
2022/03/21 03:14:36;;;;;;;112.37;61.50;;;;;;;-0.94;69.82;104029.77;1749635;81;21064;-77
2022/03/21 03:17:03;;;;;;;102.75;58.75;;;;;;;-0.94;69.85;104029.77;1747513;81;21113;-78
2022/03/21 03:19:29;;;;;;;106.20;61.00;;;;;;;-0.94;69.86;104035.86;1719474;83;21116;-78
2022/03/21 03:21:56;;;;;;;103.80;59.65;;;;;;;-0.94;69.88;104031.06;1716364;81;21761;-78
2022/03/21 03:24:25;;;;;;;102.55;57.15;;;;;;;-0.96;69.88;104035.12;1748660;80;21044;-78
2022/03/21 03:26:51;;;;;;;103.22;58.00;;;;;;;-0.97;69.88;104029.41;1715450;80;21079;-78
2022/03/21 03:29:18;;;;;;;106.40;60.08;;;;;;;-1.00;69.86;104030.84;1741657;81;21071;-78
2022/03/21 03:31:45;;;;;;;104.65;58.23;;;;;;;-1.02;69.88;104031.41;1750981;81;21644;-78
2022/03/21 03:34:11;;;;;;;102.62;57.85;;;;;;;-1.05;69.94;104031.96;1757982;81;21759;-79
2022/03/21 03:36:38;;;;;;;100.25;56.55;;;;;;;-1.07;70.00;104037.31;1722054;81;21029;-78
2022/03/21 03:39:05;;;;;;;106.45;57.85;;;;;;;-1.09;70.08;104031.03;1745096;79;21087;-80
2022/03/21 03:41:32;;;;;;;101.60;56.48;;;;;;;-1.09;70.10;104028.78;1773594;79;21051;-79
2022/03/21 03:43:58;;;;;;;91.37;54.25;;;;;;;-1.10;70.16;104028.24;1748621;80;21024;-79
2022/03/21 03:46:25;;;;;;;97.35;54.63;;;;;;;-1.10;70.17;104029.53;1744670;79;21759;-79
2022/03/21 03:48:54;;;;;;;95.60;56.37;;;;;;;-1.11;70.17;104027.30;1750424;79;21130;-79
2022/03/21 03:51:20;;;;;;;96.50;54.27;;;;;;;-1.11;70.22;104035.42;1748068;79;21681;-79
2022/03/21 03:53:46;;;;;;;100.35;57.78;;;;;;;-1.11;70.25;104027.67;1759633;79;21288;-80
2022/03/21 03:56:13;;;;;;;100.78;56.10;;;;;;;-1.12;70.27;104027.13;1744008;79;21051;-79
2022/03/21 03:58:40;;;;;;;101.12;56.48;;;;;;;-1.12;70.28;104037.09;1756829;79;21734;-78
2022/03/21 04:01:06;;;;;;;102.45;54.75;;;;;;;-1.11;70.25;104035.42;1750079;79;21066;-80
2022/03/21 04:03:45;;;;;;;100.42;55.43;;;;;;;-1.11;70.25;104034.13;1765499;80;21024;-79
2022/03/21 04:06:20;;;;;;;100.82;54.85;;;;;;;-1.12;70.24;104030.63;1746205;79;21136;-79
2022/03/21 04:08:48;;;;;;;97.78;56.58;;;;;;;-1.13;70.25;104033.02;1748116;79;21537;-79
2022/03/21 04:11:14;;;;;;;90.67;51.77;;;;;;;-1.15;70.25;104033.20;1771005;79;21749;-80
2022/03/21 04:13:41;;;;;;;97.10;53.48;;;;;;;-1.18;70.29;104038.55;1753357;79;21072;-80
2022/03/21 04:16:08;;;;;;;95.75;53.17;;;;;;;-1.17;70.34;104034.30;1741062;79;21048;-79
2022/03/21 04:18:35;;;;;;;92.92;53.63;;;;;;;-1.17;70.30;104033.00;1751476;79;21592;-78
2022/03/21 04:21:03;;;;;;;99.60;54.63;;;;;;;-1.17;70.34;104038.17;1758810;80;21063;-78
2022/03/21 04:23:30;;;;;;;95.77;54.13;;;;;;;-1.17;70.34;104041.67;1769774;80;21770;-78
2022/03/21 04:25:57;;;;;;;102.00;55.65;;;;;;;-1.18;70.33;104037.25;1769099;80;21094;-78
2022/03/21 04:28:23;;;;;;;99.70;54.50;;;;;;;-1.17;70.34;104035.20;1768534;80;21013;-78
2022/03/21 04:30:50;;;;;;;94.80;52.95;;;;;;;-1.17;70.33;104032.63;1769628;80;21098;-78
2022/03/21 04:33:16;;;;;;;95.70;54.93;;;;;;;-1.19;70.33;104036.68;1771523;80;21103;-78
2022/03/21 04:35:44;;;;;;;104.07;55.17;;;;;;;-1.21;70.29;104035.94;1766566;80;21735;-77
2022/03/21 04:38:14;;;;;;;93.50;54.88;;;;;;;-1.20;70.34;104035.23;1764064;80;21049;-77
2022/03/21 04:40:46;;;;;;;98.27;52.17;;;;;;;-1.21;70.36;104033.36;1755115;80;21024;-78
2022/03/21 04:43:14;;;;;;;93.78;53.50;;;;;;;-1.23;70.34;104030.58;1751125;80;21549;-76
2022/03/21 04:45:43;;;;;;;92.92;52.43;;;;;;;-1.22;70.37;104034.08;1758182;80;21052;-76
2022/03/21 04:48:10;;;;;;;95.17;52.78;;;;;;;-1.21;70.40;104040.73;1757723;80;21772;-77
2022/03/21 04:50:36;;;;;;;106.30;58.75;;;;;;;-1.19;70.44;104034.47;1745256;81;21087;-77
2022/03/21 04:53:25;;;;;;;133.12;70.97;;;;;;;-1.15;70.45;104032.82;1745940;82;21044;-88
2022/03/21 04:55:53;;;;;;;115.50;65.28;;;;;;;-1.10;70.49;104039.87;1739819;81;21069;-80
2022/03/21 04:58:20;;;;;;;100.20;57.25;;;;;;;-1.05;70.38;104025.84;1743626;80;21104;-83
2022/03/21 05:00:49;;;;;;;92.70;53.08;;;;;;;-0.99;70.33;104030.13;1758765;81;21758;-82
2022/03/21 05:03:22;;;;;;;91.90;52.90;;;;;;;-0.92;70.30;104035.70;1757055;80;21052;-83
2022/03/21 05:05:51;;;;;;;87.53;49.63;;;;;;;-0.86;70.24;104035.17;1754629;80;21017;-83
2022/03/21 05:08:22;;;;;;;94.92;52.00;;;;;;;-0.79;70.17;104032.61;1755188;81;21186;-83
2022/03/21 05:10:49;;;;;;;95.95;54.85;;;;;;;-0.72;70.06;104031.69;1716559;82;21032;-82
2022/03/21 05:13:15;;;;;;;91.60;52.73;;;;;;;-0.63;70.00;104034.49;1758709;81;21845;-82
2022/03/21 05:15:43;;;;;;;86.85;51.58;;;;;;;-0.53;69.94;104031.36;1758381;81;21073;-82
2022/03/21 05:18:09;;;;;;;91.57;50.98;;;;;;;-0.46;69.82;104031.00;1742012;81;21053;-82
2022/03/21 05:20:37;;;;;;;88.17;50.45;;;;;;;-0.36;69.72;104026.95;1748974;81;21617;-82
2022/03/21 05:31:18;;;;;;;77.10;46.48;;;;;;;0.04;69.29;104036.60;1720266;81;21674;-81
2022/03/21 05:36:30;;;;;;;86.60;48.63;;;;;;;0.23;69.18;104043.99;1695371;82;21065;-80
2022/03/21 05:38:57;;;;;;;79.92;47.93;;;;;;;0.32;69.04;104047.31;1698349;82;21788;-81
2022/03/21 05:41:27;;;;;;;90.00;49.67;;;;;;;0.40;68.99;104044.71;1669962;84;21167;-78
2022/03/21 05:43:53;;;;;;;93.60;51.65;;;;;;;0.46;68.91;104047.64;1659919;84;22309;-77
2022/03/21 05:46:20;;;;;;;83.58;50.90;;;;;;;0.51;68.81;104047.83;1698367;83;21060;-77
2022/03/21 05:51:28;;;;;;;93.00;51.25;;;;;;;0.62;68.71;104050.75;1657233;82;22037;-79
2022/03/21 05:53:58;;;;;;;89.52;48.95;;;;;;;0.62;68.64;104039.08;1698050;82;21082;-81
2022/03/21 05:56:27;;;;;;;82.33;48.63;;;;;;;0.60;68.57;104027.23;1684899;82;21632;-80
2022/03/21 05:58:54;;;;;;;83.55;45.35;;;;;;;0.77;68.51;104051.28;1703903;82;21557;-79
2022/03/21 06:01:22;;;;;;;81.37;48.02;;;;;;;0.88;68.78;104055.11;1704246;82;21058;-79
2022/03/21 06:03:52;;;;;;;83.35;47.03;;;;;;;1.00;68.58;104052.67;1672896;84;21709;-79
2022/03/21 06:06:20;;;;;;;82.12;47.95;;;;;;;1.07;68.32;104050.41;1697810;82;21031;-79
2022/03/21 06:08:48;;;;;;;80.42;46.85;;;;;;;1.15;68.19;104051.86;1691949;84;21111;-80
2022/03/21 06:11:14;;;;;;;82.65;46.95;;;;;;;1.21;68.07;104050.73;1669040;83;21086;-75
2022/03/21 06:13:43;;;;;;;79.80;46.98;;;;;;;1.27;67.93;104051.43;1698655;84;21708;-77
2022/03/21 06:16:10;;;;;;;78.95;46.85;;;;;;;1.29;67.86;104049.94;1666805;84;21778;-77
2022/03/21 06:18:37;;;;;;;79.80;44.73;;;;;;;1.34;67.87;104052.70;1700946;82;21098;-78
2022/03/21 06:21:07;;;;;;;75.30;45.50;;;;;;;1.42;67.81;104056.17;1671244;84;21087;-78
2022/03/21 06:23:34;;;;;;;88.75;51.98;;;;;;;1.48;67.75;104056.52;1707292;84;21101;-78
2022/03/21 06:26:00;;;;;;;93.35;53.28;;;;;;;1.55;67.73;104059.42;1677590;84;21094;-78
2022/03/21 06:28:28;;;;;;;83.67;51.02;;;;;;;1.64;67.74;104059.18;1703712;84;21748;-78
2022/03/21 06:30:54;;;;;;;85.97;51.33;;;;;;;1.69;67.67;104059.34;1660215;84;21125;-78
2022/03/21 06:33:28;;;;;;;92.02;53.28;;;;;;;1.74;67.63;104063.36;1696520;83;22135;-78
2022/03/21 06:35:55;;;;;;;;;;;;;;;1.82;67.69;104069.46;1704066;82;21091;-78
2022/03/21 06:38:22;;;;;;;81.17;49.48;;;;;;;1.79;67.58;104049.62;1704570;81;20215;-78
2022/03/21 06:40:49;;;;;;;94.25;51.58;;;;;;;1.94;67.39;104061.73;1740551;81;21689;-78
2022/03/21 06:43:16;;;;;;;85.57;51.55;;;;;;;1.99;67.32;104069.12;1724820;82;21093;-78
2022/03/21 06:45:43;;;;;;;87.90;50.52;;;;;;;2.07;67.38;104067.95;1710913;82;21626;-79
2022/03/21 06:48:10;;;;;;;88.12;51.25;;;;;;;2.13;67.29;104067.33;1710273;82;21081;-78
2022/03/21 06:50:37;;;;;;;81.60;52.13;;;;;;;2.23;67.29;104067.98;1710439;82;21089;-78
2022/03/21 06:53:03;;;;;;;90.20;51.55;;;;;;;2.31;67.14;104072.77;1709198;82;22248;-79
2022/03/21 06:55:30;;;;;;;82.40;51.48;;;;;;;2.39;67.06;104067.13;1709750;83;21203;-78
2022/03/21 06:57:57;;;;;;;86.87;53.63;;;;;;;2.47;67.04;104075.00;1725897;82;21046;-78
2022/03/21 07:00:24;;;;;;;87.15;52.80;;;;;;;2.57;67.10;104076.03;1709793;82;21109;-79
2022/03/21 07:02:51;;;;;;;114.00;58.02;;;;;;;2.66;67.10;104075.75;1725320;82;21027;-79
2022/03/21 07:05:18;;;;;;;135.18;63.42;;;;;;;2.77;67.07;104071.35;1722526;82;22595;-79
2022/03/21 07:07:47;;;;;;;137.77;65.80;;;;;;;2.84;66.91;104072.58;1726991;81;21639;-79
2022/03/21 07:10:13;;;;;;;111.52;61.40;;;;;;;2.92;66.85;104074.71;1719653;83;21655;-79
2022/03/21 07:12:42;;;;;;;105.05;60.73;;;;;;;2.98;66.69;104075.38;1698778;83;21542;-79
2022/03/21 07:15:09;;;;;;;117.10;59.53;;;;;;;3.04;66.64;104073.47;1722774;82;21099;-79
2022/03/21 07:17:35;;;;;;;101.53;59.53;;;;;;;3.10;66.55;104076.72;1722212;83;22630;-79
2022/03/21 07:20:02;;;;;;;104.75;59.75;;;;;;;3.17;66.48;104073.09;1741300;80;21061;-79
2022/03/21 07:22:29;;;;;;;106.03;59.48;;;;;;;3.22;66.38;104071.91;1704532;82;21493;-79
2022/03/21 07:24:56;;;;;;;92.90;57.78;;;;;;;3.30;66.33;104071.44;1710067;82;21725;-79
2022/03/21 07:27:23;;;;;;;96.35;57.25;;;;;;;3.40;66.24;104070.77;1710546;82;21026;-79
2022/03/21 07:29:49;;;;;;;104.15;58.40;;;;;;;3.49;66.17;104066.52;1709854;82;21771;-78
2022/03/21 07:32:17;;;;;;;92.27;56.35;;;;;;;3.58;66.10;104071.41;1685535;83;40044;-78
2022/03/21 07:34:45;;;;;;;94.10;56.02;;;;;;;3.65;65.79;104068.70;1709997;82;21763;-78
2022/03/21 07:37:12;;;;;;;94.85;56.85;;;;;;;3.74;65.67;104071.38;1707392;82;21206;-78
2022/03/21 07:39:39;;;;;;;87.55;56.25;;;;;;;3.83;65.55;104071.41;1697108;81;21121;-79
2022/03/21 07:42:07;;;;;;;94.52;57.70;;;;;;;3.92;65.37;104072.38;1722624;81;21794;-78
2022/03/21 07:47:22;;;;;;;101.47;60.90;;;;;;;4.09;65.11;104078.06;1713169;81;21041;-79
2022/03/21 07:49:50;;;;;;;102.72;61.75;;;;;;;4.21;65.00;104078.45;1692469;83;21077;-79
2022/03/21 07:52:18;;;;;;;99.50;58.02;;;;;;;4.31;64.94;104078.62;1692561;83;21607;-79
2022/03/21 07:54:53;;;;;;;89.75;55.17;;;;;;;4.40;64.46;104077.37;1696803;83;21849;-79
2022/03/21 07:57:22;;;;;;;118.82;67.65;;;;;;;4.48;64.17;104083.89;1696885;82;21058;-79
2022/03/21 07:59:48;;;;;;;124.27;72.42;;;;;;;4.57;64.07;104079.10;1688128;82;21149;-79
2022/03/21 08:02:15;;;;;;;140.40;79.58;;;;;;;4.65;64.16;104074.28;1704932;82;21105;-79
2022/03/21 08:04:42;;;;;;;83.80;52.05;;;;;;;4.74;64.02;104079.53;1698607;83;21147;-79
2022/03/21 08:07:08;;;;;;;74.45;49.05;;;;;;;4.81;63.67;104080.70;1716704;82;21737;-79
2022/03/21 08:09:35;;;;;;;74.35;49.15;;;;;;;4.85;63.30;104078.54;1692395;82;21334;-78
2022/03/21 08:12:02;;;;;;;76.50;46.95;;;;;;;4.93;63.10;104084.93;1688179;82;21085;-78
2022/03/21 08:14:29;;;;;;;85.32;50.17;;;;;;;4.98;62.74;104081.11;1689996;82;21077;-78
2022/03/21 08:16:56;;;;;;;78.87;51.13;;;;;;;5.02;62.61;104082.86;1697883;82;21124;-78
2022/03/21 08:19:24;;;;;;;85.32;51.18;;;;;;;5.11;62.61;104083.27;1697935;82;22620;-79
2022/03/21 08:21:57;;;;;;;85.20;54.40;;;;;;;5.21;62.69;104085.62;1710100;82;21093;-78
2022/03/21 08:24:21;;;;;;;84.58;56.20;;;;;;;5.32;62.63;104083.19;1711606;82;20995;-79
2022/03/21 08:26:49;;;;;;;96.45;59.05;;;;;;;5.41;62.53;104084.11;1701924;81;21353;-78
2022/03/21 08:29:15;;;;;;;88.15;57.45;;;;;;;5.48;62.44;104083.95;1677985;83;21667;-78
2022/03/21 08:31:42;;;;;;;83.33;52.95;;;;;;;5.55;62.46;104082.45;1701196;81;21730;-77
2022/03/21 08:34:09;;;;;;;86.00;54.55;;;;;;;5.65;62.39;104080.40;1713231;83;21076;-80
2022/03/21 08:36:36;;;;;;;86.75;54.88;;;;;;;5.74;62.18;104079.96;1716744;82;21062;-80
2022/03/21 08:39:02;;;;;;;87.55;54.90;;;;;;;5.81;62.05;104071.04;1694566;82;21556;-80
2022/03/21 08:41:29;;;;;;;95.07;62.20;;;;;;;5.88;61.96;104064.34;1695637;83;21162;-79
2022/03/21 08:43:56;;;;;;;84.87;55.10;;;;;;;5.95;61.81;104065.84;1696895;81;21785;-80
2022/03/21 08:46:22;;;;;;;94.40;61.15;;;;;;;6.03;61.76;104069.77;1705598;81;21036;-80
2022/03/21 08:51:37;;;;;;;86.22;56.55;;;;;;;6.18;61.63;104064.20;1708075;83;21085;-79
2022/03/21 08:54:07;;;;;;;90.17;57.50;;;;;;;6.25;61.54;104065.69;1717657;81;21107;-79
2022/03/21 08:56:34;;;;;;;77.97;52.05;;;;;;;6.32;61.40;104062.48;1717657;81;21776;-80
2022/03/21 08:59:00;;;;;;;81.47;51.70;;;;;;;6.43;61.34;104053.05;1726306;81;21139;-79
2022/03/21 09:01:27;;;;;;;79.03;52.40;;;;;;;6.55;61.08;104049.00;1724019;81;21555;-79
2022/03/21 09:03:58;;;;;;;98.92;62.40;;;;;;;6.67;60.92;104048.31;1709599;81;21167;-79
2022/03/21 09:06:25;;;;;;;83.87;51.42;;;;;;;6.78;60.81;104050.23;1720025;81;21104;-79
2022/03/21 09:08:52;;;;;;;73.75;47.78;;;;;;;6.91;60.49;104044.05;1702861;81;21731;-79
2022/03/21 09:11:19;;;;;;;85.42;54.53;;;;;;;7.02;60.01;104050.28;1717416;82;21143;-79
2022/03/21 09:13:50;;;;;;;76.87;44.45;;;;;;;7.12;59.82;104044.19;1713486;81;21521;-79
2022/03/21 09:16:16;;;;;;;62.55;39.75;;;;;;;7.20;59.52;104038.84;1701648;81;21164;-80
2022/03/21 09:18:43;;;;;;;62.50;38.50;;;;;;;7.35;59.03;104038.02;1705983;83;21577;-79
2022/03/21 09:21:11;;;;;;;55.28;38.08;;;;;;;7.50;58.62;104040.20;1740728;81;21798;-79
2022/03/21 09:23:38;;;;;;;50.00;34.08;;;;;;;7.62;58.22;104035.14;1721323;81;21098;-79
2022/03/21 09:26:05;;;;;;;50.45;33.83;;;;;;;7.73;57.75;104027.47;1745226;80;21021;-79
2022/03/21 09:28:33;;;;;;;55.67;37.80;;;;;;;7.80;57.48;104024.98;1746614;80;21106;-79
2022/03/21 09:30:59;;;;;;;45.65;28.92;;;;;;;7.90;57.22;104029.34;1714241;81;21093;-79
2022/03/21 09:33:27;;;;;;;43.45;29.25;;;;;;;8.01;56.79;104019.40;1752462;80;21943;-79
2022/03/21 09:35:53;;;;;;;37.50;26.02;;;;;;;8.13;56.52;104009.08;1773492;80;21078;-79
2022/03/21 09:38:20;;;;;;;43.13;27.77;;;;;;;8.28;56.30;104013.44;1746753;80;21123;-78
2022/03/21 09:40:47;;;;;;;41.88;27.22;;;;;;;8.41;55.98;104010.14;1713542;81;21606;-79
2022/03/21 09:43:14;;;;;;;35.80;23.95;;;;;;;8.48;55.52;103996.79;1715709;82;21105;-79
2022/03/21 09:45:41;;;;;;;32.50;23.07;;;;;;;8.58;54.99;104000.75;1747222;80;21751;-79
2022/03/21 09:48:29;;;;;;;35.17;24.82;;;;;;;8.65;54.65;103990.35;1727979;81;21068;-79
2022/03/21 09:50:56;;;;;;;35.03;22.37;;;;;;;8.74;54.28;103995.07;1631711;85;21161;-79
2022/03/21 09:53:24;;;;;;;37.25;23.32;;;;;;;8.84;53.85;103991.14;1632000;85;21129;-79
2022/03/21 09:55:52;;;;;;;41.63;28.38;;;;;;;8.93;53.62;103986.66;1632404;85;21099;-79
2022/03/21 09:58:20;;;;;;;37.83;23.77;;;;;;;9.02;53.34;103981.23;1631614;85;21678;-78
2022/03/21 10:00:49;;;;;;;36.38;25.02;;;;;;;9.10;53.10;103980.55;1630486;86;21140;-79
2022/03/21 10:03:17;;;;;;;41.48;26.10;;;;;;;9.18;53.01;103971.61;1618205;87;21130;-79
2022/03/21 10:05:46;;;;;;;39.42;26.37;;;;;;;9.30;52.72;103973.00;1632182;85;21765;-80
2022/03/21 10:08:27;;;;;;;32.23;23.30;;;;;;;9.36;52.17;103978.75;1632114;85;21119;-79
2022/03/21 10:11:06;;;;;;;29.48;21.45;;;;;;;9.42;52.14;103970.08;1630943;85;21881;-78
2022/03/21 10:13:38;;;;;;;36.80;24.35;;;;;;;9.51;51.70;103970.78;1609828;86;21423;-79
2022/03/21 10:16:16;;;;;;;37.60;24.37;;;;;;;9.64;51.59;103968.75;1633397;85;21207;-79
2022/03/21 10:18:57;;;;;;;32.98;22.73;;;;;;;9.70;51.18;103965.70;1630171;85;21102;-79
2022/03/21 10:21:27;;;;;;;35.98;24.27;;;;;;;9.72;50.74;103961.10;1672933;81;21042;-79
2022/03/21 10:24:10;;;;;;;36.45;25.35;;;;;;;9.74;50.63;103958.56;1730184;80;21787;-78
2022/03/21 10:26:43;;;;;;;35.85;24.87;;;;;;;9.79;50.42;103955.00;1731815;81;21075;-79
2022/03/21 10:29:11;;;;;;;38.28;28.07;;;;;;;9.78;49.95;103957.10;1729082;81;21598;-79
2022/03/21 10:31:44;;;;;;;41.63;21.73;;;;;;;9.81;50.12;103951.69;1722731;81;21081;-79
2022/03/21 10:34:20;;;;;;;26.60;19.05;;;;;;;9.86;49.79;103949.03;1731573;80;21645;-79
2022/03/21 10:37:12;;;;;;;27.22;20.20;;;;;;;9.91;49.27;103943.74;1730386;81;21710;-79
2022/03/21 10:39:40;;;;;;;21.35;15.18;;;;;;;9.96;48.99;103940.55;1727528;81;21074;-79
2022/03/21 10:42:10;;;;;;;21.55;15.78;;;;;;;10.04;48.47;103936.42;1740083;81;21552;-79
2022/03/21 10:44:37;;;;;;;21.48;16.07;;;;;;;10.10;48.10;103934.26;1720906;81;21097;-78
2022/03/21 10:47:07;;;;;;;21.02;15.48;;;;;;;10.17;47.92;103933.00;1733348;81;21104;-79
2022/03/21 10:49:40;;;;;;;25.08;17.42;;;;;;;10.25;47.63;103937.58;1735829;80;22915;-79
2022/03/21 10:52:07;;;;;;;;;;;;;;;10.28;47.30;103933.84;1744529;80;21064;-79
2022/03/21 10:54:48;;;;;;;32.30;18.92;;;;;;;10.30;46.99;103927.95;1745919;80;20685;-79
2022/03/21 10:57:36;;;;;;;29.50;19.12;;;;;;;10.34;47.14;103926.84;1747385;81;21086;-79
2022/03/21 11:00:23;;;;;;;26.30;18.30;;;;;;;10.42;47.04;103925.74;1702073;82;21082;-79
2022/03/21 11:03:03;;;;;;;25.55;18.90;;;;;;;10.46;46.52;103922.53;1742960;80;21615;-79
2022/03/21 11:05:30;;;;;;;27.00;18.27;;;;;;;10.45;46.50;103918.05;1728605;81;21088;-79
2022/03/21 11:07:57;;;;;;;26.87;18.65;;;;;;;10.46;46.05;103916.86;1734568;81;21096;-79
2022/03/21 11:10:25;;;;;;;27.82;17.82;;;;;;;10.47;45.97;103913.44;1713700;82;21601;-79
2022/03/21 11:12:51;;;;;;;28.85;19.87;;;;;;;10.50;45.71;103908.38;1746875;80;21065;-79
2022/03/21 11:15:18;;;;;;;23.73;18.32;;;;;;;10.51;45.38;103911.96;1735962;82;21754;-79
2022/03/21 11:17:46;;;;;;;27.93;19.65;;;;;;;10.54;45.29;103912.58;1735747;81;21110;-79
2022/03/21 11:20:13;;;;;;;27.90;19.73;;;;;;;10.58;45.44;103909.38;1734464;82;21124;-79
2022/03/21 11:22:43;;;;;;;29.48;20.27;;;;;;;10.69;45.41;103909.37;1735088;81;21573;-79
2022/03/21 11:25:16;;;;;;;26.82;20.32;;;;;;;10.73;45.04;103909.20;1737532;81;21061;-79
2022/03/21 11:28:01;;;;;;;30.97;20.05;;;;;;;10.74;44.92;103904.47;1742151;79;21693;-79
2022/03/21 11:31:06;;;;;;;27.75;18.85;;;;;;;10.76;44.70;103905.91;1746787;81;21578;-79
2022/03/21 11:33:57;;;;;;;31.40;21.68;;;;;;;10.77;44.62;103905.98;1734275;81;21076;-79
2022/03/21 11:36:24;;;;;;;26.45;18.98;;;;;;;10.84;44.73;103895.11;1722373;81;21534;-79
2022/03/21 11:39:00;;;;;;;32.88;21.10;;;;;;;10.91;44.39;103899.55;1704313;82;21125;-79
2022/03/21 11:41:28;;;;;;;27.60;18.95;;;;;;;10.94;44.39;103894.06;1743142;81;22492;-78